createdAt,value
2022-12-07T04:48:38.875Z,1.71
2022-12-07T04:51:42.112Z,1.71
2022-12-07T04:54:44.679Z,1.73
2022-12-07T04:57:47.459Z,1.77
2022-12-07T05:00:50.201Z,1.83
2022-12-07T05:03:53.287Z,1.99
2022-12-07T05:06:55.831Z,2.13
2022-12-07T05:09:58.764Z,2.17
2022-12-07T05:13:01.289Z,2.28
2022-12-07T05:16:04.347Z,2.35
2022-12-07T05:19:07.704Z,2.40
2022-12-07T05:22:10.719Z,2.49
2022-12-07T05:25:13.210Z,2.53
2022-12-07T05:28:16.081Z,2.53
2022-12-07T05:31:18.696Z,2.58
2022-12-07T05:34:21.677Z,2.60
2022-12-07T05:37:24.224Z,2.57
2022-12-07T05:40:26.939Z,2.58
2022-12-07T05:43:30.144Z,2.54
2022-12-07T05:46:33.518Z,2.58
2022-12-07T05:49:36.051Z,2.61
2022-12-07T05:52:38.792Z,2.67
2022-12-07T05:55:41.397Z,2.76
2022-12-07T05:59:02.442Z,2.72
2022-12-07T06:02:08.338Z,2.77
2022-12-07T06:05:11.285Z,2.78
2022-12-07T06:08:15.906Z,2.83
2022-12-07T06:11:37.434Z,2.88
2022-12-07T06:14:40.131Z,2.94
2022-12-07T06:17:42.931Z,2.95
2022-12-07T06:20:45.416Z,3.06
2022-12-07T06:23:49.063Z,3.05
2022-12-07T06:26:52.082Z,3.12
2022-12-07T06:29:54.826Z,3.20
2022-12-07T06:32:57.300Z,3.21
2022-12-07T06:36:00.009Z,3.24
2022-12-07T06:39:03.488Z,3.26
2022-12-07T06:42:06.393Z,3.31
2022-12-07T06:45:09.102Z,3.33
2022-12-07T06:48:11.836Z,3.35
2022-12-07T06:51:14.612Z,3.28
2022-12-07T06:54:18.017Z,3.41
2022-12-07T06:57:21.275Z,3.52
2022-12-07T07:00:25.987Z,3.34
2022-12-07T07:03:30.933Z,3.04
2022-12-07T07:06:34.053Z,2.94
2022-12-07T07:09:36.605Z,2.71
2022-12-07T07:12:39.390Z,2.69
2022-12-07T07:15:41.954Z,2.59
2022-12-07T07:18:44.843Z,2.63
2022-12-07T07:21:47.480Z,2.56
2022-12-07T07:24:50.378Z,2.50
2022-12-07T07:27:52.862Z,2.35
2022-12-07T07:30:55.677Z,2.47
2022-12-07T07:34:01.141Z,2.48
2022-12-07T07:37:03.963Z,2.53
2022-12-07T07:40:07.622Z,2.54
2022-12-07T07:43:10.500Z,2.63
2022-12-07T07:46:13.035Z,2.67
2022-12-07T07:49:15.890Z,2.87
2022-12-07T07:52:18.480Z,3.09
2022-12-07T07:55:24.067Z,3.23
2022-12-07T07:58:26.769Z,3.45
2022-12-07T08:01:29.841Z,3.54
2022-12-07T08:04:32.652Z,3.62
2022-12-07T08:07:35.260Z,3.53
2022-12-07T08:10:38.297Z,3.61
2022-12-07T08:13:40.755Z,3.51
2022-12-07T08:16:43.523Z,3.52
2022-12-07T08:19:46.277Z,3.57
2022-12-07T08:22:48.996Z,3.67
2022-12-07T08:25:51.453Z,3.80
2022-12-07T08:28:54.323Z,3.80
2022-12-07T08:32:08.088Z,3.93
2022-12-07T08:35:12.600Z,4.02
2022-12-07T08:38:15.153Z,3.98
2022-12-07T08:41:18.154Z,3.97
2022-12-07T08:44:20.626Z,3.98
2022-12-07T08:47:24.665Z,4.12
2022-12-07T08:50:27.675Z,4.40
2022-12-07T08:53:32.292Z,4.49
2022-12-07T08:56:35.665Z,4.62
2022-12-07T08:59:38.797Z,4.88
2022-12-07T09:02:41.463Z,5.19
2022-12-07T09:05:44.402Z,5.23
2022-12-07T09:08:55.274Z,5.51
2022-12-07T09:11:58.676Z,5.69
2022-12-07T09:15:01.812Z,5.79
2022-12-07T09:18:05.493Z,5.81
2022-12-07T09:21:08.299Z,5.74
2022-12-07T09:24:13.214Z,5.65
2022-12-07T09:27:16.753Z,5.81
2022-12-07T09:30:19.689Z,5.79
2022-12-07T09:33:22.217Z,5.82
2022-12-07T09:36:26.192Z,5.81
2022-12-07T09:39:28.971Z,5.84
2022-12-07T09:42:38.128Z,5.95
2022-12-07T09:45:44.383Z,6.08
2022-12-07T09:48:51.639Z,6.26
2022-12-07T09:52:03.632Z,6.57
2022-12-07T09:55:13.076Z,6.77
2022-12-07T09:58:23.109Z,6.66
2022-12-07T10:01:25.922Z,6.73
2022-12-07T10:04:30.621Z,6.80
2022-12-07T10:07:33.194Z,6.74
2022-12-07T10:10:39.773Z,6.90
2022-12-07T10:13:49.940Z,6.66
2022-12-07T10:16:53.769Z,6.61
2022-12-07T10:20:18.413Z,6.87
2022-12-07T10:23:22.110Z,7.12
2022-12-07T10:26:36.626Z,7.55
2022-12-07T10:29:40.592Z,7.74
2022-12-07T10:32:43.027Z,7.99
2022-12-07T10:35:45.889Z,8.06
2022-12-07T10:39:02.393Z,7.85
2022-12-07T10:42:07.031Z,7.50
2022-12-07T10:45:19.231Z,7.71
2022-12-07T10:48:50.800Z,7.63
2022-12-07T10:52:09.675Z,7.69
2022-12-07T10:55:29.055Z,7.85
2022-12-07T10:58:34.417Z,8.10
2022-12-07T11:02:07.783Z,8.26
2022-12-07T11:05:34.162Z,8.43
2022-12-07T11:09:09.251Z,8.28
2022-12-07T11:12:21.637Z,8.04
2022-12-07T11:15:39.032Z,7.95
2022-12-07T11:19:06.724Z,7.90
2022-12-07T11:22:39.742Z,7.80
2022-12-07T11:25:50.915Z,7.72
2022-12-07T11:29:12.212Z,7.63
2022-12-07T11:32:35.681Z,7.52
2022-12-07T11:35:53.762Z,7.64
2022-12-07T11:39:01.493Z,7.77
2022-12-07T11:42:13.020Z,7.73
2022-12-07T11:45:33.627Z,7.52
2022-12-07T11:48:42.716Z,7.29
2022-12-07T11:51:47.344Z,7.33
2022-12-07T11:54:53.794Z,7.20
2022-12-07T11:58:05.395Z,7.16
2022-12-07T12:01:13.963Z,7.21
2022-12-07T12:04:41.234Z,7.20
2022-12-07T12:11:38.409Z,7.21
2022-12-07T12:15:19.628Z,7.14
2022-12-07T12:18:22.334Z,7.31
2022-12-07T12:21:30.610Z,7.22
2022-12-07T12:24:38.495Z,7.47
2022-12-07T12:27:41.458Z,7.49
2022-12-07T12:30:44.387Z,7.60
2022-12-07T12:33:50.705Z,8.92
2022-12-07T12:36:56.626Z,11.67
2022-12-07T12:40:17.303Z,12.94
2022-12-07T12:43:44.318Z,13.81
2022-12-07T12:46:55.735Z,15.05
2022-12-07T12:50:18.938Z,16.75
2022-12-07T12:53:25.108Z,17.50
2022-12-07T12:56:41.559Z,15.21
2022-12-07T12:59:59.614Z,13.23
2022-12-07T13:03:10.236Z,11.24
2022-12-07T13:06:21.941Z,10.19
2022-12-07T13:09:29.470Z,9.49
2022-12-07T13:12:32.838Z,8.96
2022-12-07T13:16:08.367Z,8.48
2022-12-07T13:19:44.484Z,8.22
2022-12-07T13:22:50.887Z,8.08
2022-12-07T13:26:02.879Z,7.88
2022-12-07T13:29:17.364Z,7.69
2022-12-07T13:32:30.649Z,7.37
2022-12-07T13:35:36.392Z,7.17
2022-12-07T13:38:40.103Z,7.14
2022-12-07T13:41:43.930Z,6.96
2022-12-07T13:44:46.392Z,6.79
2022-12-07T13:47:58.459Z,6.69
2022-12-07T13:51:03.620Z,6.43
2022-12-07T13:54:14.460Z,6.24
2022-12-07T13:57:18.693Z,6.22
2022-12-07T14:00:27.465Z,6.17
2022-12-07T14:03:35.658Z,6.04
2022-12-07T14:06:49.275Z,6.12
2022-12-07T14:09:58.089Z,6.05
2022-12-07T14:13:01.927Z,6.05
2022-12-07T14:16:19.903Z,5.94
2022-12-07T14:19:49.040Z,5.82
2022-12-07T14:22:56.571Z,5.67
2022-12-07T14:26:21.374Z,5.62
2022-12-07T14:29:27.092Z,5.47
2022-12-07T14:32:31.846Z,5.34
2022-12-07T14:35:41.465Z,5.18
2022-12-07T14:38:44.089Z,5.08
2022-12-07T14:41:53.205Z,4.98
2022-12-07T14:44:57.580Z,4.88
2022-12-07T14:54:45.886Z,4.63
2022-12-07T14:57:48.350Z,4.60
2022-12-07T15:00:51.236Z,4.50
2022-12-07T15:03:53.745Z,4.37
2022-12-07T15:07:01.603Z,4.20
2022-12-07T15:10:05.099Z,4.07
2022-12-07T15:13:26.918Z,3.95
2022-12-07T15:16:40.601Z,3.86
2022-12-07T15:19:52.205Z,3.76
2022-12-07T15:22:54.893Z,3.66
2022-12-07T15:25:57.774Z,3.56
2022-12-07T15:29:00.860Z,3.50
2022-12-07T15:32:03.779Z,3.37
2022-12-07T15:35:06.915Z,3.24
2022-12-07T15:38:09.899Z,3.17
2022-12-07T15:41:12.347Z,3.09
2022-12-07T15:44:34.633Z,3.01
2022-12-07T15:48:19.846Z,2.96
2022-12-07T15:51:06.805Z,2.87
2022-12-07T15:54:31.070Z,2.81
2022-12-07T15:57:36.136Z,2.73
2022-12-07T16:00:38.655Z,2.85
2022-12-07T16:03:41.810Z,2.80
2022-12-07T16:06:44.387Z,2.73
2022-12-07T16:09:48.422Z,2.75
2022-12-07T16:12:50.882Z,2.82
2022-12-07T16:15:53.855Z,2.77
2022-12-07T16:18:56.435Z,2.81
2022-12-07T16:22:00.139Z,2.76
2022-12-07T16:25:03.003Z,2.68
2022-12-07T16:28:05.997Z,2.72
2022-12-07T16:31:13.075Z,2.61
2022-12-07T16:34:16.443Z,2.53
2022-12-07T16:37:18.941Z,2.44
2022-12-07T16:40:21.755Z,2.36
2022-12-07T16:43:24.467Z,2.37
2022-12-07T16:46:27.277Z,2.54
2022-12-07T16:49:30.053Z,2.58
2022-12-07T16:52:32.841Z,2.52
2022-12-07T16:55:44.756Z,2.48
2022-12-07T16:58:49.393Z,2.35
2022-12-07T17:01:52.811Z,2.24
2022-12-07T17:04:55.541Z,2.20
2022-12-07T17:07:58.766Z,2.10
2022-12-07T17:11:01.623Z,2.08
2022-12-07T17:14:23.111Z,2.02
2022-12-07T17:17:26.029Z,2.00
2022-12-07T17:20:28.566Z,1.96
2022-12-07T17:23:32.370Z,1.89
2022-12-07T17:26:35.945Z,1.84
2022-12-07T17:29:38.993Z,1.81
